Time;durP1;ratioP1;P1;durP2;ratioP2;P2;SDS_P1;SDS_P2;PMS_P1;PMS_P2;Temp;Humidity;BMP_temperature;BMP_pressure;BME280_temperature;BME280_humidity;BME280_pressure;Samples;Min_cycle;Max_cycle;Signal;HPM_P1;HPM_P2
2023/11/18 00:01:08;;;;;;;35.28;19.25;;;;;;;4.13;100.00;101339.28;5041192;28;20041;-69
2023/11/18 00:03:36;;;;;;;32.25;19.50;;;;;;;4.11;100.00;101330.56;5039372;28;20053;-68
2023/11/18 00:06:06;;;;;;;31.92;17.83;;;;;;;4.09;100.00;101324.47;5031070;28;20493;-69
2023/11/18 00:08:35;;;;;;;32.75;17.65;;;;;;;4.13;100.00;101334.06;5016416;28;20041;-69
2023/11/18 00:11:04;;;;;;;32.20;18.15;;;;;;;4.08;100.00;101330.59;5019110;28;20092;-69
2023/11/18 00:13:32;;;;;;;32.70;19.33;;;;;;;4.07;100.00;101339.34;5021873;28;20348;-69
2023/11/18 00:16:01;;;;;;;30.92;17.83;;;;;;;4.06;100.00;101327.13;5044906;28;20045;-69
2023/11/18 00:18:31;;;;;;;30.02;18.10;;;;;;;4.03;100.00;101332.38;5042417;28;20411;-68
2023/11/18 00:21:00;;;;;;;33.10;18.83;;;;;;;4.02;100.00;101335.00;5054856;28;20715;-69
2023/11/18 00:23:33;;;;;;;34.05;18.52;;;;;;;3.85;100.00;101317.63;5037754;28;20044;-69
2023/11/18 00:26:06;;;;;;;36.15;19.08;;;;;;;3.91;100.00;101327.19;5039306;28;20044;-69
2023/11/18 00:28:36;;;;;;;33.58;18.65;;;;;;;3.98;100.00;101323.66;5038116;28;20052;-71
2023/11/18 00:31:06;;;;;;;28.83;17.73;;;;;;;4.03;100.00;101329.75;5037338;28;20119;-69
2023/11/18 00:33:35;;;;;;;32.92;18.55;;;;;;;4.02;100.00;101316.66;5031683;28;20067;-69
2023/11/18 00:36:05;;;;;;;36.20;19.17;;;;;;;4.05;100.00;101325.38;5047602;28;20046;-69
2023/11/18 00:38:33;;;;;;;33.33;18.10;;;;;;;4.08;100.00;101332.34;5035074;28;20048;-69
2023/11/18 00:41:04;;;;;;;31.77;18.05;;;;;;;4.04;100.00;101333.25;5040283;28;20044;-70
2023/11/18 00:43:32;;;;;;;31.88;18.33;;;;;;;3.99;100.00;101333.25;5018664;28;20565;-69
2023/11/18 00:46:03;;;;;;;31.23;18.17;;;;;;;3.94;100.00;101331.53;5040748;28;20053;-69
2023/11/18 00:48:37;;;;;;;31.20;18.10;;;;;;;3.93;100.00;101335.94;5044937;28;20497;-69
2023/11/18 00:51:07;;;;;;;32.47;18.90;;;;;;;3.95;100.00;101333.28;5034533;28;20623;-68
2023/11/18 00:53:35;;;;;;;34.90;21.20;;;;;;;3.90;100.00;101329.81;5032200;28;20083;-68
2023/11/18 00:56:07;;;;;;;33.65;18.92;;;;;;;3.92;100.00;101338.56;5037539;28;20083;-68
2023/11/18 00:58:40;;;;;;;34.78;20.20;;;;;;;3.89;100.00;101339.44;5045239;28;20055;-69
2023/11/18 01:01:09;;;;;;;33.75;18.20;;;;;;;3.85;100.00;101338.56;5041814;28;20052;-69
2023/11/18 01:03:41;;;;;;;30.00;17.50;;;;;;;3.88;100.00;101346.44;5032520;28;20391;-69
2023/11/18 01:06:09;;;;;;;34.17;18.45;;;;;;;3.88;100.00;101346.44;5043930;28;20045;-69
2023/11/18 01:08:37;;;;;;;33.55;18.92;;;;;;;3.85;100.00;101348.19;5042255;28;20059;-70
2023/11/18 01:11:06;;;;;;;31.35;18.00;;;;;;;3.83;100.00;101342.06;5042686;28;20073;-69
2023/11/18 01:13:35;;;;;;;29.88;17.35;;;;;;;3.84;100.00;101347.31;5034020;28;20045;-69
2023/11/18 01:16:06;;;;;;;29.73;17.27;;;;;;;3.81;100.00;101344.69;5042233;28;20702;-70
2023/11/18 01:18:34;;;;;;;33.72;17.60;;;;;;;3.86;100.00;101353.41;5040329;28;20039;-70
2023/11/18 01:21:09;;;;;;;32.30;18.20;;;;;;;3.87;100.00;101352.53;5041718;28;20040;-69
2023/11/18 01:23:37;;;;;;;31.35;17.88;;;;;;;3.91;100.00;101348.16;5051035;28;20136;-71
2023/11/18 01:26:08;;;;;;;31.38;18.20;;;;;;;3.92;100.00;101351.66;5040114;28;20057;-71
2023/11/18 01:28:39;;;;;;;33.15;18.25;;;;;;;3.94;100.00;101349.88;5038958;28;20046;-71
2023/11/18 01:31:09;;;;;;;29.40;17.77;;;;;;;3.95;100.00;101354.25;5044360;28;20064;-69
2023/11/18 01:33:39;;;;;;;32.38;18.10;;;;;;;3.93;100.00;101354.28;5036879;28;20053;-71
2023/11/18 01:36:12;;;;;;;29.13;17.33;;;;;;;3.84;100.00;101342.06;5050462;28;20045;-69
2023/11/18 01:38:41;;;;;;;28.20;17.27;;;;;;;3.86;100.00;101349.94;5040778;28;20490;-69
2023/11/18 01:41:09;;;;;;;27.13;17.75;;;;;;;3.90;100.00;101342.94;5045755;28;20056;-70
2023/11/18 01:43:39;;;;;;;29.30;17.25;;;;;;;3.90;100.00;101343.81;5034921;28;20065;-69
2023/11/18 01:46:12;;;;;;;27.13;17.05;;;;;;;3.88;100.00;101340.31;5047457;28;20053;-69
2023/11/18 01:48:41;;;;;;;33.28;18.95;;;;;;;3.83;100.00;101345.56;5045478;28;20044;-69
2023/11/18 01:51:14;;;;;;;30.48;17.30;;;;;;;3.73;100.00;101349.09;5048030;28;20049;-69
2023/11/18 01:53:45;;;;;;;30.25;17.10;;;;;;;3.64;100.00;101343.00;5039464;28;20536;-70
2023/11/18 01:56:14;;;;;;;33.08;18.58;;;;;;;3.57;100.00;101346.56;5047898;28;20181;-71
2023/11/18 01:58:43;;;;;;;31.30;17.92;;;;;;;3.48;100.00;101345.69;5043571;28;20048;-69
2023/11/18 02:01:17;;;;;;;34.72;20.35;;;;;;;3.46;100.00;101346.59;5052489;28;20318;-69
2023/11/18 02:03:47;;;;;;;33.67;19.98;;;;;;;3.44;100.00;101348.34;5054648;28;20040;-69
2023/11/18 02:06:17;;;;;;;33.40;19.50;;;;;;;3.33;100.00;101348.34;5054353;28;20141;-70
2023/11/18 02:08:45;;;;;;;33.08;19.75;;;;;;;3.35;100.00;101361.44;5062311;28;20547;-70
2023/11/18 02:11:22;;;;;;;31.48;19.75;;;;;;;3.32;100.00;101356.19;5052863;28;20054;-70
2023/11/18 02:13:54;;;;;;;32.75;18.92;;;;;;;3.31;100.00;101360.56;5046727;28;20128;-70
2023/11/18 02:16:25;;;;;;;34.83;20.50;;;;;;;3.30;100.00;101357.97;5049838;28;20049;-70
2023/11/18 02:18:56;;;;;;;30.95;18.77;;;;;;;3.27;100.00;101353.63;5032253;28;20041;-69
2023/11/18 02:21:26;;;;;;;37.08;20.13;;;;;;;3.27;100.00;101353.63;5064433;28;20060;-69
2023/11/18 02:23:55;;;;;;;30.60;20.05;;;;;;;3.26;100.00;101359.72;5024747;28;20052;-71
2023/11/18 02:26:25;;;;;;;30.75;19.50;;;;;;;3.26;100.00;101361.47;5057840;28;20057;-70
2023/11/18 02:28:54;;;;;;;34.08;20.33;;;;;;;3.19;100.00;101365.81;5027261;28;20048;-69
2023/11/18 02:31:31;;;;;;;33.90;19.45;;;;;;;3.15;100.00;101364.06;5046640;28;20447;-71
2023/11/18 02:34:08;;;;;;;33.83;18.83;;;;;;;3.09;100.00;101364.97;5034352;28;20108;-71
2023/11/18 02:36:45;;;;;;;28.90;18.05;;;;;;;2.99;100.00;101363.22;5033600;28;20044;-71
2023/11/18 02:39:21;;;;;;;30.02;18.10;;;;;;;2.88;100.00;101359.75;5045704;28;20044;-71
2023/11/18 02:41:58;;;;;;;27.17;16.83;;;;;;;2.80;100.00;101371.97;5042193;28;20144;-69
2023/11/18 02:44:27;;;;;;;24.60;15.93;;;;;;;2.66;100.00;101363.25;5035707;28;20045;-71
2023/11/18 02:46:55;;;;;;;25.73;16.88;;;;;;;2.52;100.00;101360.59;5041491;28;20045;-70
2023/11/18 02:49:26;;;;;;;25.83;16.55;;;;;;;2.41;100.00;101367.56;5046171;28;20412;-70
2023/11/18 02:51:55;;;;;;;26.20;15.65;;;;;;;2.31;100.00;101363.19;5039009;28;20048;-71
2023/11/18 02:54:23;;;;;;;24.40;16.45;;;;;;;2.20;100.00;101360.56;5030128;28;20060;-69
2023/11/18 02:56:52;;;;;;;25.67;16.42;;;;;;;2.17;100.00;101357.94;5040005;28;20105;-70
2023/11/18 02:59:23;;;;;;;26.83;16.05;;;;;;;2.07;100.00;101361.38;5041148;28;20053;-69
2023/11/18 03:01:54;;;;;;;27.05;16.33;;;;;;;1.94;100.00;101338.69;5026332;28;20041;-70
2023/11/18 03:04:24;;;;;;;30.80;18.02;;;;;;;1.89;100.00;101351.72;5037193;28;20057;-69
2023/11/18 03:06:52;;;;;;;26.10;17.13;;;;;;;1.86;100.00;101350.88;5045759;28;20184;-70
2023/11/18 03:09:21;;;;;;;32.72;17.70;;;;;;;1.80;100.00;101348.22;5045113;28;20045;-70
2023/11/18 03:11:51;;;;;;;32.20;16.83;;;;;;;1.85;100.00;101357.81;5050077;28;20055;-70
2023/11/18 03:14:20;;;;;;;26.48;17.10;;;;;;;1.82;100.00;101342.13;5035727;28;20116;-71
2023/11/18 03:16:50;;;;;;;29.77;18.05;;;;;;;1.83;100.00;101348.25;5037830;28;20219;-71
2023/11/18 03:19:19;;;;;;;30.70;16.92;;;;;;;1.76;100.00;101347.31;5039333;28;20050;-71
2023/11/18 03:21:52;;;;;;;;;;;;;;;1.75;100.00;101353.41;5043891;28;20056;-71
2023/11/18 03:24:20;;;;;;;26.23;16.75;;;;;;;1.68;100.00;101347.31;5032988;28;19931;-71
2023/11/18 03:26:49;;;;;;;25.20;16.48;;;;;;;1.72;100.00;101354.31;5028090;28;20382;-69
2023/11/18 03:29:17;;;;;;;23.15;16.17;;;;;;;1.71;100.00;101342.09;5024310;28;20063;-70
2023/11/18 03:31:48;;;;;;;23.10;15.73;;;;;;;1.79;100.00;101347.34;5031109;28;20041;-70
2023/11/18 03:34:20;;;;;;;33.45;16.80;;;;;;;1.75;100.00;101340.34;5049077;28;20110;-70
2023/11/18 03:36:51;;;;;;;24.50;15.73;;;;;;;1.76;100.00;101339.50;5037144;28;20127;-70
2023/11/18 03:39:19;;;;;;;24.80;16.13;;;;;;;1.80;100.00;101354.31;5045200;28;20127;-71
2023/11/18 03:41:50;;;;;;;25.58;15.90;;;;;;;1.78;100.00;101353.44;5044727;28;20473;-71
2023/11/18 03:44:18;;;;;;;29.33;16.25;;;;;;;1.82;100.00;101365.66;5038019;28;20048;-70
2023/11/18 03:46:49;;;;;;;25.15;15.77;;;;;;;1.76;100.00;101374.31;5046834;28;20052;-70
2023/11/18 03:49:19;;;;;;;32.13;16.35;;;;;;;1.71;100.00;101376.06;5055391;28;20107;-70
2023/11/18 03:51:47;;;;;;;25.38;15.63;;;;;;;1.69;100.00;101383.00;5022274;28;20052;-70
2023/11/18 03:54:15;;;;;;;26.33;15.15;;;;;;;1.74;100.00;101383.88;5034883;28;20057;-70
2023/11/18 03:56:44;;;;;;;36.42;16.77;;;;;;;1.80;100.00;101385.66;5033024;28;20142;-70
2023/11/18 03:59:14;;;;;;;27.63;15.07;;;;;;;1.80;100.00;101379.56;5040632;28;20045;-70
2023/11/18 04:01:43;;;;;;;26.33;14.80;;;;;;;1.77;100.00;101380.41;5056894;28;20052;-70
2023/11/18 04:04:12;;;;;;;28.27;14.80;;;;;;;1.67;100.00;101371.69;5036380;28;20132;-71
2023/11/18 04:06:46;;;;;;;27.33;15.15;;;;;;;1.61;100.00;101375.97;5041308;28;20040;-71
2023/11/18 04:09:14;;;;;;;23.13;14.30;;;;;;;1.56;100.00;101377.72;5054883;28;20045;-69
2023/11/18 04:11:44;;;;;;;41.95;15.90;;;;;;;1.52;100.00;101381.16;5062421;28;20121;-70
2023/11/18 04:14:13;;;;;;;26.70;15.55;;;;;;;1.50;100.00;101378.53;5034593;28;20711;-70
2023/11/18 04:16:42;;;;;;;27.08;15.45;;;;;;;1.50;100.00;101373.31;5043581;28;20122;-70
2023/11/18 04:19:10;;;;;;;21.80;14.45;;;;;;;1.51;100.00;101366.38;5044293;28;20657;-70
2023/11/18 04:21:39;;;;;;;33.20;16.08;;;;;;;1.51;100.00;101362.03;5038771;28;20562;-70
2023/11/18 04:24:08;;;;;;;43.80;15.20;;;;;;;1.51;100.00;101351.56;5031642;28;20068;-70
2023/11/18 04:26:36;;;;;;;26.10;14.30;;;;;;;1.51;100.00;101348.09;5034587;28;20103;-70
2023/11/18 04:29:05;;;;;;;30.15;16.38;;;;;;;1.51;100.00;101346.34;5043316;28;20039;-70
2023/11/18 04:31:36;;;;;;;24.23;15.53;;;;;;;1.55;100.00;101355.09;5043736;28;20072;-70
2023/11/18 04:34:05;;;;;;;26.17;15.52;;;;;;;1.54;100.00;101355.94;5044051;28;20526;-70
2023/11/18 04:36:35;;;;;;;33.95;16.75;;;;;;;1.51;100.00;101354.19;5046671;28;20053;-69
2023/11/18 04:39:05;;;;;;;29.73;16.85;;;;;;;1.58;100.00;101361.16;5043375;28;20048;-70
2023/11/18 04:41:34;;;;;;;32.00;17.15;;;;;;;1.58;100.00;101355.94;5044121;28;20827;-69
2023/11/18 04:44:03;;;;;;;28.05;17.10;;;;;;;1.60;100.00;101364.66;5037665;28;20508;-70
2023/11/18 04:46:31;;;;;;;29.13;17.60;;;;;;;1.61;100.00;101368.16;5035589;28;20055;-70
2023/11/18 04:49:01;;;;;;;25.35;16.70;;;;;;;1.61;100.00;101371.63;5040439;28;20132;-70
2023/11/18 04:51:30;;;;;;;27.92;16.95;;;;;;;1.64;100.00;101373.38;5028023;28;20497;-70
2023/11/18 04:53:58;;;;;;;34.13;16.60;;;;;;;1.63;100.00;101369.91;5033259;28;20053;-71
2023/11/18 04:56:28;;;;;;;28.45;16.77;;;;;;;1.59;100.00;101368.13;5039796;28;20045;-70
2023/11/18 04:58:56;;;;;;;25.70;16.02;;;;;;;1.62;100.00;101373.38;5049294;28;20568;-70
2023/11/18 05:01:26;;;;;;;29.27;16.98;;;;;;;1.72;100.00;101374.31;5042911;28;20133;-71
2023/11/18 05:03:54;;;;;;;31.23;17.58;;;;;;;1.78;100.00;101369.09;5022582;28;20063;-69
2023/11/18 05:06:24;;;;;;;29.23;17.30;;;;;;;1.84;100.00;101363.03;5043451;28;20067;-70
2023/11/18 05:08:52;;;;;;;31.90;17.35;;;;;;;1.89;100.00;101351.72;5031941;28;20064;-70
2023/11/18 05:11:22;;;;;;;27.65;16.65;;;;;;;1.92;100.00;101350.88;5055378;28;20044;-69
2023/11/18 05:13:53;;;;;;;27.40;16.23;;;;;;;1.93;100.00;101340.44;5057078;28;20159;-70
2023/11/18 05:16:22;;;;;;;27.45;16.25;;;;;;;1.95;100.00;101351.75;5054649;28;21465;-71
2023/11/18 05:18:50;;;;;;;26.70;16.02;;;;;;;1.94;100.00;101350.00;5059963;28;20104;-69
2023/11/18 05:21:18;;;;;;;35.65;17.75;;;;;;;1.92;100.00;101345.66;5057240;28;20064;-69
2023/11/18 05:23:46;;;;;;;28.95;17.25;;;;;;;1.91;100.00;101344.78;5048384;28;20108;-69
2023/11/18 05:26:16;;;;;;;33.25;18.02;;;;;;;1.94;100.00;101343.91;5046306;28;20057;-69
2023/11/18 05:28:45;;;;;;;29.20;17.63;;;;;;;1.92;100.00;101341.28;5048335;28;20053;-70
2023/11/18 05:31:14;;;;;;;28.88;17.10;;;;;;;1.92;100.00;101335.19;5048519;28;22286;-70
2023/11/18 05:33:42;;;;;;;30.00;16.73;;;;;;;1.99;100.00;101336.97;5043466;28;20490;-70
2023/11/18 05:36:11;;;;;;;29.17;16.80;;;;;;;1.96;100.00;101321.28;5041258;28;20041;-69
2023/11/18 05:38:39;;;;;;;31.85;17.38;;;;;;;1.98;100.00;101309.97;5048507;28;20060;-70
2023/11/18 05:41:16;;;;;;;32.25;17.00;;;;;;;2.06;100.00;101317.81;5065564;28;20045;-70
2023/11/18 05:43:51;;;;;;;30.30;16.85;;;;;;;2.09;100.00;101316.09;5035998;28;20364;-70
2023/11/18 05:46:22;;;;;;;36.90;17.63;;;;;;;2.21;100.00;101312.63;5049027;28;20116;-70
2023/11/18 05:48:52;;;;;;;35.95;16.50;;;;;;;2.26;100.00;101323.97;5050847;28;20102;-69
2023/11/18 05:51:23;;;;;;;42.55;17.40;;;;;;;2.20;100.00;101310.03;5048247;28;20052;-69
2023/11/18 05:53:51;;;;;;;34.93;16.23;;;;;;;2.19;100.00;101306.56;5047807;28;20045;-69
2023/11/18 05:56:22;;;;;;;38.70;17.75;;;;;;;2.20;100.00;101310.91;5045740;28;20100;-69
2023/11/18 05:58:53;;;;;;;37.58;18.10;;;;;;;2.19;100.00;101309.16;5049309;28;20041;-69
2023/11/18 06:01:23;;;;;;;40.42;17.90;;;;;;;2.19;100.00;101310.91;5051721;28;20053;-69
2023/11/18 06:03:52;;;;;;;41.22;19.90;;;;;;;2.19;100.00;101310.91;5048480;28;20091;-69
2023/11/18 06:06:21;;;;;;;38.22;18.55;;;;;;;2.21;100.00;101314.38;5045974;28;20103;-69
2023/11/18 06:08:53;;;;;;;42.38;18.25;;;;;;;2.24;100.00;101323.09;5044879;28;20072;-70
2023/11/18 06:11:23;;;;;;;45.60;19.65;;;;;;;2.29;100.00;101321.38;5048564;28;20497;-69
2023/11/18 06:13:53;;;;;;;41.83;19.10;;;;;;;2.35;100.00;101317.91;5040804;28;21441;-70
2023/11/18 06:16:24;;;;;;;34.67;17.60;;;;;;;2.45;100.00;101327.47;5045219;28;20049;-70
2023/11/18 06:18:55;;;;;;;41.83;19.58;;;;;;;2.44;100.00;101329.22;5047500;28;20055;-69
2023/11/18 06:21:28;;;;;;;33.03;17.70;;;;;;;2.45;100.00;101325.75;5050176;28;20126;-70
2023/11/18 06:23:56;;;;;;;34.88;18.15;;;;;;;2.45;100.00;101325.75;5044133;28;20501;-70
2023/11/18 06:26:28;;;;;;;34.08;17.70;;;;;;;2.48;100.00;101335.34;5042927;28;20088;-70
2023/11/18 06:28:57;;;;;;;39.63;17.98;;;;;;;2.51;100.00;101331.84;5036481;28;20620;-70
2023/11/18 06:31:27;;;;;;;41.15;18.63;;;;;;;2.52;100.00;101333.59;5052738;28;20326;-71
2023/11/18 06:33:56;;;;;;;37.63;18.33;;;;;;;2.55;100.00;101328.34;5052643;28;20059;-69
2023/11/18 06:36:26;;;;;;;39.78;19.05;;;;;;;2.61;100.00;101323.13;5043980;28;20072;-71
2023/11/18 06:38:55;;;;;;;35.15;17.17;;;;;;;2.64;100.00;101324.00;5047800;28;20045;-71
2023/11/18 06:41:25;;;;;;;37.55;18.70;;;;;;;2.77;100.00;101325.75;5057816;28;20037;-69
2023/11/18 06:44:00;;;;;;;43.80;19.05;;;;;;;2.78;100.00;101329.25;5029802;28;20044;-70
2023/11/18 06:46:39;;;;;;;39.42;17.20;;;;;;;2.84;100.00;101316.13;5054415;28;20052;-71
2023/11/18 06:49:15;;;;;;;35.47;17.58;;;;;;;2.88;100.00;101323.13;5043776;28;20418;-69
2023/11/18 06:51:43;;;;;;;38.67;17.75;;;;;;;3.00;100.00;101327.47;5054611;28;20135;-70
2023/11/18 06:54:13;;;;;;;37.63;17.25;;;;;;;3.10;100.00;101331.81;5041979;28;20049;-72
2023/11/18 06:56:43;;;;;;;37.08;17.52;;;;;;;3.14;100.00;101323.97;5038276;28;20519;-72
2023/11/18 06:59:13;;;;;;;37.70;17.92;;;;;;;3.14;100.00;101326.59;5045419;28;20044;-72
2023/11/18 07:01:45;;;;;;;39.00;17.92;;;;;;;3.18;100.00;101332.66;5045150;28;20159;-70
2023/11/18 07:04:15;;;;;;;38.22;17.52;;;;;;;3.19;100.00;101334.41;5054804;28;20721;-71
2023/11/18 07:06:44;;;;;;;42.15;20.00;;;;;;;3.14;100.00;101326.59;5057436;28;20481;-70
2023/11/18 07:09:16;;;;;;;39.35;18.92;;;;;;;3.16;100.00;101330.06;5045222;28;20139;-71
2023/11/18 07:11:47;;;;;;;34.15;17.92;;;;;;;3.19;100.00;101323.94;5047557;28;20072;-71
2023/11/18 07:14:18;;;;;;;35.13;17.83;;;;;;;3.32;100.00;101327.41;5043168;28;20132;-71
2023/11/18 07:16:49;;;;;;;39.22;18.33;;;;;;;3.41;100.00;101327.41;5040819;28;20049;-71
2023/11/18 07:19:19;;;;;;;36.45;18.38;;;;;;;3.42;100.00;101324.78;5047899;28;20574;-71
2023/11/18 07:21:50;;;;;;;50.03;19.77;;;;;;;3.44;100.00;101312.56;5045938;28;20048;-70
2023/11/18 07:24:19;;;;;;;37.83;19.00;;;;;;;3.53;100.00;101307.28;5039842;28;20045;-71
2023/11/18 07:26:50;;;;;;;36.60;17.95;;;;;;;3.63;100.00;101305.47;5038965;28;20084;-71
2023/11/18 07:29:19;;;;;;;36.33;16.92;;;;;;;3.66;100.00;101294.13;5047709;28;20081;-71
2023/11/18 07:31:50;;;;;;;37.43;18.23;;;;;;;3.70;100.00;101306.34;5045379;28;20054;-71
2023/11/18 07:34:18;;;;;;;35.20;17.73;;;;;;;3.75;100.00;101310.69;5050075;28;21260;-70
2023/11/18 07:36:48;;;;;;;33.95;16.67;;;;;;;3.77;100.00;101327.28;5042464;28;20051;-70
2023/11/18 07:39:29;;;;;;;38.97;19.30;;;;;;;3.70;100.00;101328.16;5046015;28;20069;-71
2023/11/18 07:41:59;;;;;;;39.65;18.58;;;;;;;3.68;100.00;101343.00;5055791;28;20049;-71
2023/11/18 07:44:29;;;;;;;36.03;18.08;;;;;;;3.68;100.00;101342.13;5045388;28;20060;-69
2023/11/18 07:47:00;;;;;;;40.38;18.35;;;;;;;3.63;100.00;101338.66;5048705;28;20071;-70
2023/11/18 07:49:29;;;;;;;38.58;18.13;;;;;;;3.71;100.00;101337.75;5064410;28;20478;-69
2023/11/18 07:51:58;;;;;;;34.60;17.75;;;;;;;3.75;100.00;101326.41;5047447;28;20041;-71
2023/11/18 07:54:27;;;;;;;38.22;18.10;;;;;;;3.86;100.00;101344.69;5043516;28;20056;-69
2023/11/18 07:56:55;;;;;;;40.17;18.40;;;;;;;3.96;100.00;101349.00;5045085;28;20103;-70
2023/11/18 07:59:35;;;;;;;38.88;17.83;;;;;;;3.97;100.00;101347.25;5054172;28;20045;-71
2023/11/18 08:02:20;;;;;;;41.53;17.33;;;;;;;3.96;100.00;101346.38;5050779;28;20117;-71
2023/11/18 08:04:50;;;;;;;40.70;17.60;;;;;;;3.99;100.00;101350.72;5056425;28;20331;-70
2023/11/18 08:07:28;;;;;;;42.35;18.30;;;;;;;4.03;100.00;101348.09;5047059;28;20090;-71
2023/11/18 08:09:58;;;;;;;48.67;19.50;;;;;;;4.15;100.00;101352.41;5041425;28;20069;-69
2023/11/18 08:12:30;;;;;;;49.63;19.30;;;;;;;4.27;100.00;101348.81;5027675;28;20132;-71
2023/11/18 08:15:00;;;;;;;44.13;19.83;;;;;;;4.33;100.00;101347.06;5048515;28;20149;-71
2023/11/18 08:17:30;;;;;;;45.05;19.25;;;;;;;4.35;100.00;101352.28;5040291;28;20049;-70
2023/11/18 08:20:00;;;;;;;51.88;20.92;;;;;;;4.33;100.00;101344.44;5046931;28;20098;-69
2023/11/18 08:22:30;;;;;;;52.13;19.40;;;;;;;4.26;100.00;101353.19;5042594;28;20045;-69
2023/11/18 08:25:00;;;;;;;50.90;19.63;;;;;;;4.24;100.00;101362.84;5034667;28;20760;-70
2023/11/18 08:27:35;;;;;;;46.88;19.25;;;;;;;4.27;100.00;101354.94;5040594;28;20052;-71
2023/11/18 08:30:10;;;;;;;49.33;19.83;;;;;;;4.34;100.00;101347.94;5039514;28;20049;-70
2023/11/18 08:32:43;;;;;;;46.55;20.85;;;;;;;4.42;100.00;101336.50;5046304;28;20045;-70
2023/11/18 08:35:14;;;;;;;51.13;20.48;;;;;;;4.41;100.00;101328.63;5035380;28;20079;-70
2023/11/18 08:37:43;;;;;;;50.88;20.73;;;;;;;4.44;100.00;101336.47;5040713;28;20063;-71
2023/11/18 08:40:15;;;;;;;54.43;21.13;;;;;;;4.36;100.00;101331.31;5057990;28;20049;-71
2023/11/18 08:42:49;;;;;;;49.05;20.20;;;;;;;4.41;100.00;101340.00;5046827;28;20145;-69
2023/11/18 08:45:21;;;;;;;57.15;21.65;;;;;;;4.35;100.00;101337.44;5035100;28;20513;-69
2023/11/18 08:47:52;;;;;;;56.58;21.92;;;;;;;4.33;100.00;101328.69;5038309;28;20042;-69
2023/11/18 08:50:25;;;;;;;57.42;22.05;;;;;;;4.47;100.00;101329.47;5047496;28;20048;-70
2023/11/18 08:52:57;;;;;;;54.80;22.30;;;;;;;4.62;100.00;101318.00;5055939;28;20459;-71
2023/11/18 08:55:39;;;;;;;55.08;22.63;;;;;;;4.71;100.00;101319.69;5032882;28;20297;-71
2023/11/18 08:58:27;;;;;;;56.97;21.65;;;;;;;4.79;100.00;101315.22;5042673;28;20665;-70
2023/11/18 09:01:05;;;;;;;56.05;21.13;;;;;;;4.85;100.00;101312.56;5039616;28;20045;-72
2023/11/18 09:03:35;;;;;;;53.58;21.10;;;;;;;4.97;100.00;101301.06;5047594;28;20497;-71
2023/11/18 09:06:17;;;;;;;52.00;21.42;;;;;;;5.09;100.00;101311.44;5038813;28;20052;-71
2023/11/18 09:08:52;;;;;;;57.90;22.38;;;;;;;5.01;100.00;101314.16;5043283;28;20291;-71
2023/11/18 09:11:23;;;;;;;49.90;21.15;;;;;;;4.99;100.00;101308.06;5045042;28;20103;-71
2023/11/18 09:13:57;;;;;;;60.00;22.15;;;;;;;4.97;100.00;101304.56;5044798;28;20117;-70
2023/11/18 09:16:29;;;;;;;56.15;22.73;;;;;;;4.98;100.00;101322.06;5038152;28;20061;-71
2023/11/18 09:19:02;;;;;;;56.25;22.02;;;;;;;5.08;100.00;101304.44;5048709;28;20049;-70
2023/11/18 09:21:35;;;;;;;59.90;22.92;;;;;;;5.19;100.00;101313.13;5047217;28;20041;-69
2023/11/18 09:24:05;;;;;;;52.78;22.35;;;;;;;5.28;100.00;101319.13;5045060;28;20464;-70
2023/11/18 09:26:33;;;;;;;53.75;22.63;;;;;;;5.31;100.00;101305.09;5032800;28;20156;-72
2023/11/18 09:29:03;;;;;;;56.58;22.08;;;;;;;5.38;100.00;101317.25;5021766;28;20056;-70
2023/11/18 09:31:33;;;;;;;50.88;22.48;;;;;;;5.45;100.00;101303.19;5041095;28;20041;-71
2023/11/18 09:34:06;;;;;;;55.45;23.50;;;;;;;5.50;100.00;101298.75;5037333;28;20063;-70
2023/11/18 09:36:42;;;;;;;50.28;21.38;;;;;;;5.57;100.00;101300.41;5034676;28;20079;-71
2023/11/18 09:39:28;;;;;;;46.50;19.33;;;;;;;5.70;100.00;101310.75;5026440;28;20052;-72
2023/11/18 09:42:02;;;;;;;47.88;20.92;;;;;;;5.75;100.00;101316.84;5040034;28;20136;-70
2023/11/18 09:44:34;;;;;;;44.75;21.10;;;;;;;5.68;100.00;101323.03;5062406;28;20102;-70
2023/11/18 09:47:09;;;;;;;42.60;20.58;;;;;;;5.72;100.00;101324.75;5041746;28;20304;-71
2023/11/18 09:49:46;;;;;;;45.10;22.25;;;;;;;5.75;100.00;101319.47;5045852;28;20145;-69
2023/11/18 09:52:21;;;;;;;45.60;21.48;;;;;;;5.81;100.00;101320.28;5060151;28;21839;-71
2023/11/18 09:55:02;;;;;;;44.90;21.48;;;;;;;5.88;100.00;101310.53;5040814;28;20142;-70
2023/11/18 09:57:34;;;;;;;43.28;21.30;;;;;;;5.94;100.00;101308.72;5041143;28;21004;-71
2023/11/18 10:00:21;;;;;;;48.83;22.10;;;;;;;5.83;100.00;101305.31;5042784;28;20120;-71
2023/11/18 10:02:51;;;;;;;48.90;22.13;;;;;;;5.79;100.00;101308.91;5046686;28;20048;-71
2023/11/18 10:05:26;;;;;;;47.38;22.00;;;;;;;5.81;100.00;101309.75;5042955;28;20059;-72
2023/11/18 10:07:55;;;;;;;49.20;22.92;;;;;;;5.79;100.00;101310.66;5032943;28;20084;-70
2023/11/18 10:10:33;;;;;;;45.40;22.75;;;;;;;5.68;100.00;101309.91;5050378;28;20386;-70
2023/11/18 10:13:21;;;;;;;51.90;23.77;;;;;;;5.61;100.00;101307.38;5048768;28;20153;-70
2023/11/18 10:15:52;;;;;;;50.55;23.63;;;;;;;5.54;100.00;101299.56;5060159;28;20727;-71
2023/11/18 10:18:23;;;;;;;;;;;;;;;5.51;100.00;101302.25;5031524;28;20547;-70
2023/11/18 10:20:53;;;;;;;64.28;25.35;;;;;;;5.47;100.00;101311.06;5061354;28;19995;-70
2023/11/18 10:23:23;;;;;;;75.85;28.90;;;;;;;5.46;100.00;101309.31;5047774;28;20043;-70
2023/11/18 10:25:53;;;;;;;78.45;26.35;;;;;;;5.37;100.00;101310.25;5055182;28;20048;-71
2023/11/18 10:28:32;;;;;;;71.50;26.27;;;;;;;5.32;100.00;101316.47;5046482;28;20056;-71
2023/11/18 10:31:04;;;;;;;73.38;27.05;;;;;;;5.18;100.00;101303.50;5045893;28;20069;-71
2023/11/18 10:33:35;;;;;;;79.70;28.00;;;;;;;5.22;100.00;101299.94;5054687;28;20037;-71
2023/11/18 10:36:22;;;;;;;80.43;28.30;;;;;;;5.23;100.00;101305.16;5041323;28;20053;-70
2023/11/18 10:38:55;;;;;;;71.03;26.90;;;;;;;5.23;100.00;101302.53;5048574;28;20048;-70
2023/11/18 10:41:25;;;;;;;81.07;27.52;;;;;;;5.27;100.00;101292.88;5051496;28;20087;-70
2023/11/18 10:44:13;;;;;;;80.47;28.27;;;;;;;5.32;100.00;101284.97;5050016;28;20048;-70
2023/11/18 10:46:53;;;;;;;73.18;26.50;;;;;;;5.36;100.00;101284.88;5050441;28;20052;-72
2023/11/18 10:49:23;;;;;;;75.80;27.85;;;;;;;5.43;100.00;101283.06;5066411;28;20049;-70
2023/11/18 10:51:58;;;;;;;74.55;27.92;;;;;;;5.45;100.00;101266.41;5048557;28;20129;-70
2023/11/18 10:54:31;;;;;;;76.07;27.73;;;;;;;5.53;100.00;101268.94;5034926;28;20361;-70
2023/11/18 10:57:07;;;;;;;72.97;25.55;;;;;;;5.56;100.00;101253.13;5038314;28;20048;-71
2023/11/18 10:59:36;;;;;;;73.35;27.65;;;;;;;5.60;100.00;101253.09;5048615;28;20049;-69
2023/11/18 11:02:34;;;;;;;70.35;27.65;;;;;;;5.64;100.00;101246.03;5046238;28;20110;-71
2023/11/18 11:05:04;;;;;;;59.47;27.20;;;;;;;5.73;100.00;101248.53;5047316;28;20053;-70
2023/11/18 11:07:34;;;;;;;62.25;27.42;;;;;;;5.82;100.00;101248.41;5042933;28;20052;-69
2023/11/18 11:10:05;;;;;;;61.20;27.88;;;;;;;5.89;100.00;101241.31;5048245;28;20037;-70
2023/11/18 11:12:39;;;;;;;64.28;26.40;;;;;;;6.00;100.00;101239.41;5052187;28;20049;-69
2023/11/18 11:15:13;;;;;;;57.38;27.90;;;;;;;6.13;100.00;101233.09;5052553;28;20057;-70
2023/11/18 11:17:49;;;;;;;53.67;26.70;;;;;;;6.24;100.00;101236.41;5038039;28;20053;-71
2023/11/18 11:20:26;;;;;;;52.15;25.48;;;;;;;6.33;100.00;101225.72;5048683;28;20041;-70
2023/11/18 11:23:08;;;;;;;45.25;23.80;;;;;;;6.37;100.00;101202.88;5061605;28;20048;-70
2023/11/18 11:25:53;;;;;;;44.88;23.73;;;;;;;6.46;100.00;101201.84;5043204;28;20065;-69
2023/11/18 11:28:23;;;;;;;41.83;22.08;;;;;;;6.47;100.00;101198.31;5047403;28;20071;-70